Terminal Aerodrome Forecast
Issued by NWS

Home | Current Version | Previous Version | Text Only | Print | Product List | Glossary On
Versions: 1 2 3 4 5 6 7 8 9 10 11 12 13 14
000
FTUS45 KABQ 300132 AAA
TAFAEG
TAF AMD
KAEG 300132Z 3002/3024 30010KT P6SM -RA OVC060
     FM301500 15005KT P6SM SCT070 SCT200
     FM302000 26010KT P6SM SCT070 BKN200=

USA.gov is the U.S. government's official web portal to all federal, state and local government web resources and services.